createdAt,value
2018-02-05T00:01:45.171Z,97292.56
2018-02-05T00:04:13.731Z,97294.87
2018-02-05T00:06:42.949Z,97301.45
2018-02-05T00:09:17.258Z,97297.20
2018-02-05T00:11:47.549Z,97293.84
2018-02-05T00:14:20.268Z,97295.43
2018-02-05T00:16:51.500Z,97292.02
2018-02-05T00:19:23.287Z,97298.14
2018-02-05T00:21:53.569Z,97300.63
2018-02-05T00:24:28.112Z,97307.05
2018-02-05T00:26:58.436Z,97302.14
2018-02-05T00:29:30.849Z,97301.53
2018-02-05T00:31:59.332Z,97304.25
2018-02-05T00:34:29.735Z,97305.69
2018-02-05T00:37:00.980Z,97314.68
2018-02-05T00:39:34.070Z,97320.38
2018-02-05T00:42:04.389Z,97318.91
2018-02-05T00:44:38.491Z,97320.96
2018-02-05T00:49:42.439Z,97329.60
2018-02-05T00:52:14.209Z,97327.52
2018-02-05T00:54:47.502Z,97331.11
2018-02-05T00:57:15.969Z,97333.97
2018-02-05T00:59:46.229Z,97335.36
2018-02-05T01:02:25.215Z,97345.40
2018-02-05T01:05:01.948Z,97357.49
2018-02-05T01:07:32.215Z,97354.92
2018-02-05T01:10:00.802Z,97358.19
2018-02-05T01:12:31.957Z,97358.21
2018-02-05T01:15:01.251Z,97353.30
2018-02-05T01:17:31.559Z,97353.67
2018-02-05T01:20:01.788Z,97362.81
2018-02-05T01:22:30.488Z,97366.48
2018-02-05T01:25:00.793Z,97356.73
2018-02-05T01:27:30.173Z,97364.16
2018-02-05T01:29:58.713Z,97358.41
2018-02-05T01:32:29.017Z,97360.90
2018-02-05T01:35:00.038Z,97358.23
2018-02-05T01:37:30.395Z,97358.66
2018-02-05T01:40:02.880Z,97355.37
2018-02-05T01:42:33.521Z,97357.14
2018-02-05T01:45:02.613Z,97353.52
2018-02-05T01:47:31.907Z,97345.75
2018-02-05T01:50:01.103Z,97353.30
2018-02-05T01:52:30.423Z,97362.97
2018-02-05T01:54:59.719Z,97352.76
2018-02-05T01:57:29.781Z,97348.37
2018-02-05T01:59:58.530Z,97350.94
2018-02-05T02:02:28.957Z,97357.25
2018-02-05T02:04:58.360Z,97359.45
2018-02-05T02:07:29.663Z,97354.19
2018-02-05T02:09:59.930Z,97354.91
2018-02-05T02:12:30.721Z,97347.45
2018-02-05T02:15:05.042Z,97353.30
2018-02-05T02:17:33.576Z,97353.30
2018-02-05T02:20:04.776Z,97355.06
2018-02-05T02:22:34.905Z,97365.56
2018-02-05T02:25:05.277Z,97366.66
2018-02-05T02:27:41.957Z,97367.79
2018-02-05T02:30:10.828Z,97372.08
2018-02-05T02:32:43.778Z,97373.38
2018-02-05T02:35:15.162Z,97374.77
2018-02-05T02:37:48.643Z,97380.26
2018-02-05T02:40:19.304Z,97379.36
2018-02-05T02:42:50.968Z,97380.83
2018-02-05T02:45:19.953Z,97383.91
2018-02-05T02:47:50.228Z,97389.06
2018-02-05T02:50:21.690Z,97389.92
2018-02-05T02:52:59.270Z,97390.83
2018-02-05T02:55:31.922Z,97390.89
2018-02-05T02:58:02.018Z,97395.52
2018-02-05T03:00:32.630Z,97393.03
2018-02-05T03:03:01.124Z,97390.45
2018-02-05T03:05:31.166Z,97392.56
2018-02-05T03:08:01.476Z,97388.86
2018-02-05T03:10:34.136Z,97392.94
2018-02-05T03:13:03.652Z,97391.32
2018-02-05T03:15:33.965Z,97399.53
2018-02-05T03:18:05.522Z,97396.13
2018-02-05T03:20:33.960Z,97397.73
2018-02-05T03:23:04.122Z,97401.75
2018-02-05T03:25:34.210Z,97401.14
2018-02-05T03:28:04.365Z,97400.09
2018-02-05T03:30:38.016Z,97400.50
2018-02-05T03:35:41.365Z,97417.12
2018-02-05T03:38:14.057Z,97423.34
2018-02-05T03:40:45.331Z,97421.57
2018-02-05T03:43:18.331Z,97427.63
2018-02-05T03:45:48.716Z,97432.02
2018-02-05T03:48:19.794Z,97427.55
2018-02-05T03:50:50.040Z,97427.30
2018-02-05T03:53:31.262Z,97430.50
2018-02-05T03:56:01.586Z,97428.39
2018-02-05T03:58:34.606Z,97430.06
2018-02-05T04:01:05.652Z,97430.81
2018-02-05T04:03:38.937Z,97426.62
2018-02-05T04:06:10.189Z,97426.55
2018-02-05T04:08:39.809Z,97426.43
2018-02-05T04:11:09.190Z,97431.99
2018-02-05T04:13:39.627Z,97426.49
2018-02-05T04:16:09.908Z,97429.38
2018-02-05T04:18:42.473Z,97430.13
2018-02-05T04:21:11.224Z,97430.13
2018-02-05T04:23:39.831Z,97428.42
2018-02-05T04:26:11.603Z,97425.72
2018-02-05T04:28:41.767Z,97432.61
2018-02-05T04:31:12.071Z,97439.27
2018-02-05T04:33:44.564Z,97435.84
2018-02-05T04:36:14.999Z,97440.41
2018-02-05T04:38:44.536Z,97442.84
2018-02-05T04:41:15.362Z,97444.02
2018-02-05T04:43:49.449Z,97446.84
2018-02-05T04:46:18.171Z,97444.54
2018-02-05T04:48:48.433Z,97444.88
2018-02-05T04:51:19.314Z,97442.23
2018-02-05T04:53:47.816Z,97434.25
2018-02-05T04:56:19.166Z,97443.23
2018-02-05T04:58:49.310Z,97442.26
2018-02-05T05:01:19.400Z,97436.45
2018-02-05T05:03:48.648Z,97436.33
2018-02-05T05:06:17.180Z,97435.05
2018-02-05T05:08:47.342Z,97434.95
2018-02-05T05:11:18.616Z,97432.37
2018-02-05T05:13:49.743Z,97441.45
2018-02-05T05:16:20.782Z,97456.02
2018-02-05T05:18:50.167Z,97445.11
2018-02-05T05:21:19.870Z,97445.36
2018-02-05T05:23:51.044Z,97441.47
2018-02-05T05:26:22.276Z,97450.53
2018-02-05T05:28:51.870Z,97455.06
2018-02-05T05:31:28.543Z,97460.04
2018-02-05T05:33:57.730Z,97461.63
2018-02-05T05:36:26.902Z,97455.75
2018-02-05T05:38:55.387Z,97456.63
2018-02-05T05:41:25.948Z,97450.25
2018-02-05T05:44:07.542Z,97442.60
2018-02-05T05:46:36.118Z,97443.13
2018-02-05T05:49:06.446Z,97440.52
2018-02-05T05:51:45.540Z,97434.28
2018-02-05T05:54:35.574Z,97430.28
2018-02-05T05:57:06.728Z,97430.65
2018-02-05T05:59:37.960Z,97434.71
2018-02-05T06:02:07.408Z,97446.33
2018-02-05T06:04:38.042Z,97438.00
2018-02-05T06:07:08.277Z,97451.67
2018-02-05T06:09:38.548Z,97447.04
2018-02-05T06:12:08.728Z,97450.61
2018-02-05T06:14:38.442Z,97450.98
2018-02-05T06:17:07.042Z,97449.98
2018-02-05T06:19:38.243Z,97455.59
2018-02-05T06:22:08.454Z,97451.40
2018-02-05T06:24:37.368Z,97446.20
2018-02-05T06:27:08.400Z,97453.66
2018-02-05T06:29:36.914Z,97456.91
2018-02-05T06:32:07.258Z,97463.06
2018-02-05T06:34:38.303Z,97466.41
2018-02-05T06:37:08.600Z,97468.89
2018-02-05T06:39:39.446Z,97469.67
2018-02-05T06:42:11.283Z,97479.98
2018-02-05T06:44:41.752Z,97488.23
2018-02-05T06:47:11.533Z,97498.54
2018-02-05T06:49:40.154Z,97496.46
2018-02-05T06:52:20.903Z,97495.34
2018-02-05T06:55:01.071Z,97497.39
2018-02-05T06:57:31.503Z,97500.02
2018-02-05T07:00:02.527Z,97498.16
2018-02-05T07:02:38.987Z,97502.33
2018-02-05T07:05:14.605Z,97499.44
2018-02-05T07:07:45.082Z,97494.56
2018-02-05T07:10:15.227Z,97500.41
2018-02-05T07:12:46.649Z,97496.74
2018-02-05T07:15:15.900Z,97500.59
2018-02-05T07:17:46.571Z,97510.23
2018-02-05T07:20:17.307Z,97512.28
2018-02-05T07:22:48.732Z,97518.31
2018-02-05T07:25:17.201Z,97518.84
2018-02-05T07:27:46.450Z,97530.63
2018-02-05T07:30:16.682Z,97520.38
2018-02-05T07:32:47.865Z,97521.42
2018-02-05T07:35:20.105Z,97518.86
2018-02-05T07:37:50.047Z,97522.13
2018-02-05T07:40:21.313Z,97522.86
2018-02-05T07:42:52.531Z,97520.26
2018-02-05T07:45:22.971Z,97520.95
2018-02-05T07:47:54.003Z,97513.13
2018-02-05T07:50:24.121Z,97512.77
2018-02-05T07:52:54.425Z,97514.30
2018-02-05T07:55:28.175Z,97523.59
2018-02-05T07:57:59.167Z,97510.27
2018-02-05T08:00:34.122Z,97511.52
2018-02-05T08:03:04.331Z,97508.03
2018-02-05T08:05:36.011Z,97505.36
2018-02-05T08:08:04.439Z,97504.52
2018-02-05T08:10:34.585Z,97503.28
2018-02-05T08:13:04.887Z,97505.83
2018-02-05T08:15:36.615Z,97516.28
2018-02-05T08:18:05.911Z,97504.63
2018-02-05T08:20:36.105Z,97502.55
2018-02-05T08:23:04.786Z,97498.89
2018-02-05T08:25:34.959Z,97500.06
2018-02-05T08:28:03.516Z,97504.85
2018-02-05T08:30:36.983Z,97498.52
2018-02-05T08:36:00.433Z,97504.10
2018-02-05T08:38:39.507Z,97505.06
2018-02-05T08:41:10.753Z,97513.80
2018-02-05T08:43:39.339Z,97521.71
2018-02-05T08:46:09.569Z,97525.73
2018-02-05T08:48:42.659Z,97526.72
2018-02-05T08:51:13.789Z,97525.45
2018-02-05T08:53:44.112Z,97527.45
2018-02-05T08:56:13.568Z,97521.92
2018-02-05T08:58:43.837Z,97524.87
2018-02-05T09:01:16.425Z,97521.63
2018-02-05T09:03:52.104Z,97525.34
2018-02-05T09:06:22.425Z,97532.06
2018-02-05T09:08:56.006Z,97526.60
2018-02-05T09:11:26.430Z,97528.30
2018-02-05T09:13:57.867Z,97525.16
2018-02-05T09:16:27.498Z,97520.00
2018-02-05T09:18:56.071Z,97524.36
2018-02-05T09:21:25.611Z,97520.19
2018-02-05T09:23:55.884Z,97522.52
2018-02-05T09:26:26.776Z,97527.31
2018-02-05T09:28:55.479Z,97520.17
2018-02-05T09:31:43.467Z,97517.56
2018-02-05T09:34:13.723Z,97511.19
2018-02-05T09:36:45.062Z,97512.44
2018-02-05T09:39:24.367Z,97517.56
2018-02-05T09:41:55.531Z,97521.45
2018-02-05T09:44:24.257Z,97505.20
2018-02-05T09:46:53.534Z,97506.75
2018-02-05T09:49:28.006Z,97503.46
2018-02-05T09:51:58.267Z,97506.90
2018-02-05T09:54:30.053Z,97512.05
2018-02-05T09:57:00.553Z,97499.66
2018-02-05T09:59:31.388Z,97505.84
2018-02-05T10:02:03.559Z,97501.70
2018-02-05T10:04:34.486Z,97497.09
2018-02-05T10:07:05.148Z,97484.09
2018-02-05T10:09:37.494Z,97490.78
2018-02-05T10:12:08.834Z,97489.45
2018-02-05T10:14:40.770Z,97483.76
2018-02-05T10:17:12.581Z,97490.61
2018-02-05T10:19:41.568Z,97481.95
2018-02-05T10:22:10.583Z,97483.25
2018-02-05T10:24:39.267Z,97487.73
2018-02-05T10:27:08.056Z,97485.29
2018-02-05T10:29:42.642Z,97483.42
2018-02-05T10:32:14.633Z,97485.82
2018-02-05T10:34:43.968Z,97478.32
2018-02-05T10:37:12.640Z,97473.76
2018-02-05T10:39:43.034Z,97473.53
2018-02-05T10:42:16.558Z,97466.46
2018-02-05T10:44:46.990Z,97455.75
2018-02-05T10:47:18.036Z,97456.94
2018-02-05T10:49:51.660Z,97455.03
2018-02-05T10:52:22.582Z,97463.98
2018-02-05T10:54:52.222Z,97462.26
2018-02-05T10:57:21.436Z,97463.73
2018-02-05T10:59:51.726Z,97458.67
2018-02-05T11:02:24.994Z,97465.05
2018-02-05T11:04:53.602Z,97459.62
2018-02-05T11:07:22.085Z,97454.50
2018-02-05T11:09:50.574Z,97451.93
2018-02-05T11:12:25.276Z,97460.66
2018-02-05T11:14:55.524Z,97450.06
2018-02-05T11:17:25.018Z,97452.59
2018-02-05T11:19:53.554Z,97453.59
2018-02-05T11:22:32.231Z,97461.63
2018-02-05T11:25:02.419Z,97449.48
2018-02-05T11:27:35.619Z,97451.80
2018-02-05T11:30:05.670Z,97457.16
2018-02-05T11:32:36.862Z,97450.83
2018-02-05T11:35:08.039Z,97446.85
2018-02-05T11:37:37.502Z,97447.73
2018-02-05T11:40:06.158Z,97449.14
2018-02-05T11:42:36.496Z,97443.77
2018-02-05T11:45:05.984Z,97446.06
2018-02-05T11:47:34.569Z,97442.38
2018-02-05T11:50:03.144Z,97436.86
2018-02-05T11:52:34.861Z,97445.83
2018-02-05T11:55:05.124Z,97447.96
2018-02-05T11:57:34.761Z,97429.44
2018-02-05T12:00:18.068Z,97432.75
2018-02-05T12:02:48.497Z,97434.02
2018-02-05T12:05:21.280Z,97424.73
2018-02-05T12:07:50.586Z,97429.75
2018-02-05T12:10:35.421Z,97418.23
2018-02-05T12:13:06.309Z,97415.02
2018-02-05T12:15:35.528Z,97417.65
2018-02-05T12:18:06.540Z,97415.08
2018-02-05T12:20:39.014Z,97411.19
2018-02-05T12:23:07.696Z,97408.40
2018-02-05T12:25:38.028Z,97400.05
2018-02-05T12:28:09.072Z,97394.87
2018-02-05T12:30:39.214Z,97395.53
2018-02-05T12:33:12.487Z,97391.77
2018-02-05T12:35:41.228Z,97383.97
2018-02-05T12:38:11.493Z,97377.52
2018-02-05T12:40:42.632Z,97374.17
2018-02-05T12:43:14.036Z,97361.35
2018-02-05T12:45:46.060Z,97368.09
2018-02-05T12:48:16.398Z,97367.88
2018-02-05T12:50:46.735Z,97363.12
2018-02-05T12:53:17.070Z,97373.30
2018-02-05T12:55:48.489Z,97364.27
2018-02-05T12:58:17.824Z,97367.34
2018-02-05T13:00:58.983Z,97368.91
2018-02-05T13:06:32.605Z,97364.02
2018-02-05T13:09:01.263Z,97369.80
2018-02-05T13:11:33.083Z,97364.98
2018-02-05T13:14:03.220Z,97365.56
2018-02-05T13:16:33.655Z,97364.13
2018-02-05T13:19:04.710Z,97357.23
2018-02-05T13:21:36.793Z,97350.40
2018-02-05T13:24:10.435Z,97352.11
2018-02-05T13:26:41.117Z,97352.64
2018-02-05T13:29:12.318Z,97358.08
2018-02-05T13:31:44.280Z,97354.55
2018-02-05T13:34:14.524Z,97342.41
2018-02-05T13:36:45.587Z,97354.67
2018-02-05T13:39:22.977Z,97352.67
2018-02-05T13:41:51.973Z,97350.93
2018-02-05T13:44:22.133Z,97356.41
2018-02-05T13:46:50.731Z,97348.84
2018-02-05T13:49:24.147Z,97352.94
2018-02-05T13:51:55.665Z,97342.79
2018-02-05T13:54:25.155Z,97344.77
2018-02-05T13:56:54.352Z,97340.78
2018-02-05T13:59:24.735Z,97335.30
2018-02-05T14:01:56.219Z,97348.70
2018-02-05T14:04:27.266Z,97343.34
2018-02-05T14:06:59.841Z,97347.33
2018-02-05T14:09:28.433Z,97341.73
2018-02-05T14:11:57.639Z,97337.78
2018-02-05T14:14:26.324Z,97340.20
2018-02-05T14:16:54.900Z,97335.83
2018-02-05T14:19:35.872Z,97335.92
2018-02-05T14:22:07.061Z,97329.91
2018-02-05T14:24:35.709Z,97335.94
2018-02-05T14:27:06.046Z,97328.80
2018-02-05T14:29:37.182Z,97326.13
2018-02-05T14:32:08.102Z,97320.99
2018-02-05T14:34:36.693Z,97312.13
2018-02-05T14:37:07.875Z,97302.91
2018-02-05T14:39:39.509Z,97300.36
2018-02-05T14:42:08.725Z,97297.47
2018-02-05T14:44:38.981Z,97290.77
2018-02-05T14:47:08.443Z,97292.02
2018-02-05T14:49:37.037Z,97292.95
2018-02-05T14:52:07.344Z,97292.83
2018-02-05T14:54:36.767Z,97290.10
2018-02-05T14:59:46.387Z,97286.52
2018-02-05T15:02:17.425Z,97278.90
2018-02-05T15:04:47.690Z,97285.11
2018-02-05T15:07:18.725Z,97278.61
2018-02-05T15:09:47.338Z,97282.25
2018-02-05T15:12:17.539Z,97276.98
2018-02-05T15:14:46.170Z,97292.70
2018-02-05T15:17:14.810Z,97282.14
2018-02-05T15:19:43.309Z,97277.52
2018-02-05T15:22:11.992Z,97274.76
2018-02-05T15:24:46.705Z,97268.47
2018-02-05T15:27:17.039Z,97270.95
2018-02-05T15:29:48.080Z,97267.72
2018-02-05T15:32:23.324Z,97266.27
2018-02-05T15:34:53.456Z,97272.30
2018-02-05T15:37:22.131Z,97272.25
2018-02-05T15:40:04.970Z,97275.09
2018-02-05T15:42:33.644Z,97272.27
2018-02-05T15:45:02.323Z,97264.43
2018-02-05T15:47:30.880Z,97270.64
2018-02-05T15:50:02.120Z,97276.92
2018-02-05T15:52:30.772Z,97265.73
2018-02-05T15:55:01.040Z,97273.28
2018-02-05T15:57:30.402Z,97280.97
2018-02-05T15:59:59.168Z,97281.22
2018-02-05T16:02:34.817Z,97275.16
2018-02-05T16:05:04.520Z,97271.53
2018-02-05T16:07:33.116Z,97275.48
2018-02-05T16:10:01.698Z,97267.77
2018-02-05T16:12:30.290Z,97268.72
2018-02-05T16:14:59.075Z,97271.75
2018-02-05T16:17:28.675Z,97271.15
2018-02-05T16:19:57.193Z,97265.25
2018-02-05T16:22:26.077Z,97269.98
2018-02-05T16:24:56.433Z,97266.50
2018-02-05T16:27:25.943Z,97262.48
2018-02-05T16:29:56.253Z,97260.61
2018-02-05T16:32:29.198Z,97273.77
2018-02-05T16:34:58.608Z,97267.34
2018-02-05T16:37:27.303Z,97265.09
2018-02-05T16:40:00.662Z,97264.08
2018-02-05T16:42:29.496Z,97258.94
2018-02-05T16:44:59.853Z,97260.86
2018-02-05T16:47:35.779Z,97263.03
2018-02-05T16:50:05.486Z,97262.60
2018-02-05T16:52:35.869Z,97258.71
2018-02-05T16:55:05.343Z,97262.83
2018-02-05T16:57:33.965Z,97267.31
2018-02-05T17:00:05.078Z,97265.50
2018-02-05T17:02:35.663Z,97259.93
2018-02-05T17:05:05.918Z,97264.34
2018-02-05T17:07:37.767Z,97265.78
2018-02-05T17:10:08.122Z,97264.82
2018-02-05T17:12:41.713Z,97262.94
2018-02-05T17:15:13.856Z,97264.86
2018-02-05T17:17:42.981Z,97263.48
2018-02-05T17:20:11.541Z,97266.73
2018-02-05T17:22:40.022Z,97270.77
2018-02-05T17:25:09.345Z,97274.01
2018-02-05T17:27:38.022Z,97271.69
2018-02-05T17:30:09.886Z,97279.11
2018-02-05T17:32:38.567Z,97286.02
2018-02-05T17:35:08.919Z,97282.12
2018-02-05T17:37:42.735Z,97280.28
2018-02-05T17:40:15.887Z,97282.16
2018-02-05T17:42:46.195Z,97284.56
2018-02-05T17:45:25.650Z,97286.06
2018-02-05T17:47:54.332Z,97280.92
2018-02-05T17:50:24.631Z,97276.17
2018-02-05T17:52:56.450Z,97274.04
2018-02-05T17:55:25.969Z,97258.33
2018-02-05T17:57:54.620Z,97275.08
2018-02-05T18:00:32.333Z,97272.79
2018-02-05T18:03:01.748Z,97273.91
2018-02-05T18:05:32.251Z,97274.70
2018-02-05T18:08:09.977Z,97278.23
2018-02-05T18:10:38.630Z,97272.63
2018-02-05T18:13:08.936Z,97282.02
2018-02-05T18:15:41.597Z,97282.31
2018-02-05T18:18:11.027Z,97277.96
2018-02-05T18:20:40.475Z,97279.02
2018-02-05T18:23:09.973Z,97276.02
2018-02-05T18:25:38.551Z,97276.80
2018-02-05T18:28:08.985Z,97270.88
2018-02-05T18:30:42.509Z,97269.17
2018-02-05T18:33:12.857Z,97263.31
2018-02-05T18:35:43.039Z,97263.31
2018-02-05T18:38:11.714Z,97259.49
2018-02-05T18:40:42.007Z,97260.61
2018-02-05T18:43:32.548Z,97264.63
2018-02-05T18:46:01.837Z,97264.95
2018-02-05T18:48:30.994Z,97259.58
2018-02-05T18:51:01.232Z,97250.85
2018-02-05T18:53:31.059Z,97255.84
2018-02-05T18:56:00.419Z,97252.91
2018-02-05T18:58:29.047Z,97247.56
2018-02-05T19:00:58.556Z,97251.28
2018-02-05T19:03:28.761Z,97246.43
2018-02-05T19:05:59.569Z,97248.44
2018-02-05T19:08:36.769Z,97246.30
2018-02-05T19:11:06.280Z,97247.77
2018-02-05T19:13:37.766Z,97248.80
2018-02-05T19:16:09.006Z,97243.38
2018-02-05T19:18:37.902Z,97239.51
2018-02-05T19:21:09.239Z,97238.19
2018-02-05T19:23:39.364Z,97231.80
2018-02-05T19:26:08.194Z,97239.20
2018-02-05T19:28:38.727Z,97233.94
2018-02-05T19:31:12.835Z,97241.80
2018-02-05T19:33:42.136Z,97244.19
2018-02-05T19:36:12.267Z,97244.44
2018-02-05T19:38:49.208Z,97247.56
2018-02-05T19:41:19.083Z,97246.34
2018-02-05T19:43:48.038Z,97243.63
2018-02-05T19:46:18.326Z,97240.09
2018-02-05T19:48:52.421Z,97243.17
2018-02-05T19:51:25.749Z,97240.84
2018-02-05T19:53:57.212Z,97243.03
2018-02-05T19:56:27.768Z,97238.78
2018-02-05T20:08:43.307Z,97246.34
2018-02-05T20:11:14.518Z,97242.09
2018-02-05T20:13:45.054Z,97248.59
2018-02-05T20:16:16.249Z,97237.21
2018-02-05T20:18:47.030Z,97236.64
2018-02-05T20:21:15.972Z,97240.30
2018-02-05T20:23:47.402Z,97242.22
2018-02-05T20:26:19.881Z,97239.20
2018-02-05T20:28:48.515Z,97242.48
2018-02-05T20:31:17.412Z,97233.19
2018-02-05T20:33:47.131Z,97231.34
2018-02-05T20:36:15.962Z,97233.19
2018-02-05T20:38:44.688Z,97233.45
2018-02-05T20:41:13.351Z,97239.97
2018-02-05T20:43:42.038Z,97230.80
2018-02-05T20:46:10.933Z,97225.38
2018-02-05T20:48:39.608Z,97227.44
2018-02-05T20:51:08.208Z,97226.66
2018-02-05T20:53:36.792Z,97225.70
2018-02-05T20:56:05.483Z,97222.18
2018-02-05T20:58:36.614Z,97213.81
2018-02-05T21:01:07.635Z,97221.28
2018-02-05T21:03:37.898Z,97218.66
2018-02-05T21:06:07.519Z,97222.80
2018-02-05T21:08:36.075Z,97220.19
2018-02-05T21:11:04.840Z,97218.95
2018-02-05T21:13:33.332Z,97210.59
2018-02-05T21:16:01.942Z,97216.67
2018-02-05T21:18:30.630Z,97217.38
2018-02-05T21:20:59.998Z,97212.11
2018-02-05T21:23:30.263Z,97210.76
2018-02-05T21:25:58.957Z,97208.67
2018-02-05T21:28:27.536Z,97205.66
2018-02-05T21:30:56.103Z,97208.48
2018-02-05T21:33:26.525Z,97206.20
2018-02-05T21:35:57.588Z,97194.86
2018-02-05T21:38:26.087Z,97197.70
2018-02-05T21:40:54.763Z,97193.45
2018-02-05T21:43:24.984Z,97199.98
2018-02-05T21:45:53.577Z,97196.69
2018-02-05T21:48:22.023Z,97199.67
2018-02-05T21:50:52.336Z,97193.25
2018-02-05T21:53:24.655Z,97191.48
2018-02-05T21:55:53.856Z,97184.45
2018-02-05T21:58:23.936Z,97185.12
2018-02-05T22:00:54.421Z,97178.00
2018-02-05T22:03:23.810Z,97172.59
2018-02-05T22:05:56.232Z,97170.89
2018-02-05T22:08:26.507Z,97175.78
2018-02-05T22:10:57.666Z,97166.93
2018-02-05T22:13:26.457Z,97163.92
2018-02-05T22:15:58.030Z,97164.19
2018-02-05T22:18:28.656Z,97155.42
2018-02-05T22:20:59.042Z,97155.34
2018-02-05T22:23:30.396Z,97156.09
2018-02-05T22:25:59.934Z,97153.50
2018-02-05T22:28:29.022Z,97155.55
2018-02-05T22:30:59.582Z,97147.05
2018-02-05T22:33:31.442Z,97142.83
2018-02-05T22:36:00.656Z,97145.60
2018-02-05T22:38:31.836Z,97140.55
2018-02-05T22:41:00.428Z,97141.79
2018-02-05T22:43:29.047Z,97141.25
2018-02-05T22:45:57.607Z,97141.54
2018-02-05T22:48:26.107Z,97143.22
2018-02-05T22:51:07.166Z,97142.58
2018-02-05T22:53:36.582Z,97132.46
2018-02-05T22:56:05.039Z,97137.78
2018-02-05T22:58:35.222Z,97138.97
2018-02-05T23:01:05.464Z,97137.62
2018-02-05T23:03:35.832Z,97139.15
2018-02-05T23:06:06.068Z,97135.71
2018-02-05T23:11:26.250Z,97130.08
2018-02-05T23:13:58.521Z,97130.08
2018-02-05T23:16:27.011Z,97125.02
2018-02-05T23:18:57.279Z,97123.25
2018-02-05T23:21:26.520Z,97118.92
2018-02-05T23:23:55.015Z,97114.17
2018-02-05T23:26:24.115Z,97114.98
2018-02-05T23:28:52.592Z,97113.20
2018-02-05T23:31:21.083Z,97111.66
2018-02-05T23:33:49.769Z,97115.31
2018-02-05T23:36:18.509Z,97106.90
2018-02-05T23:38:50.621Z,97103.06
2018-02-05T23:41:21.565Z,97097.13
2018-02-05T23:43:51.784Z,97091.13
2018-02-05T23:46:24.551Z,97093.98
2018-02-05T23:48:57.235Z,97094.27
2018-02-05T23:51:29.289Z,97097.11
2018-02-05T23:53:59.474Z,97093.61
2018-02-05T23:56:28.023Z,97079.83
2018-02-05T23:58:56.614Z,97079.77
